sensor_id;sensor_type;location;lat;lon;timestamp;P1;durP1;ratioP1;P2;durP2;ratioP2
32633;SDS011;19043;51.012;5.648;2023-04-07T00:02:23;55.25;;;38.03;;
32633;SDS011;19043;51.012;5.648;2023-04-07T00:04:49;54.28;;;39.17;;
32633;SDS011;19043;51.012;5.648;2023-04-07T00:07:15;65.72;;;40.38;;
32633;SDS011;19043;51.012;5.648;2023-04-07T00:09:40;54.42;;;39.72;;
32633;SDS011;19043;51.012;5.648;2023-04-07T00:12:05;57.35;;;42.17;;
32633;SDS011;19043;51.012;5.648;2023-04-07T00:14:30;62.42;;;43.30;;
32633;SDS011;19043;51.012;5.648;2023-04-07T00:16:56;61.30;;;41.75;;
32633;SDS011;19043;51.012;5.648;2023-04-07T00:19:21;67.30;;;42.25;;
32633;SDS011;19043;51.012;5.648;2023-04-07T00:21:46;73.10;;;45.15;;
32633;SDS011;19043;51.012;5.648;2023-04-07T00:24:11;67.60;;;45.55;;
32633;SDS011;19043;51.012;5.648;2023-04-07T00:26:37;66.35;;;42.53;;
32633;SDS011;19043;51.012;5.648;2023-04-07T00:29:02;66.95;;;45.08;;
32633;SDS011;19043;51.012;5.648;2023-04-07T00:31:27;55.75;;;40.38;;
32633;SDS011;19043;51.012;5.648;2023-04-07T00:33:52;65.25;;;41.67;;
32633;SDS011;19043;51.012;5.648;2023-04-07T00:36:18;64.10;;;41.45;;
32633;SDS011;19043;51.012;5.648;2023-04-07T00:38:43;58.15;;;39.70;;
32633;SDS011;19043;51.012;5.648;2023-04-07T00:41:08;59.90;;;38.33;;
32633;SDS011;19043;51.012;5.648;2023-04-07T00:43:33;52.28;;;36.72;;
32633;SDS011;19043;51.012;5.648;2023-04-07T00:45:59;61.72;;;36.90;;
32633;SDS011;19043;51.012;5.648;2023-04-07T00:48:25;54.10;;;37.35;;
32633;SDS011;19043;51.012;5.648;2023-04-07T00:50:50;58.53;;;37.05;;
32633;SDS011;19043;51.012;5.648;2023-04-07T00:53:15;53.65;;;38.03;;
32633;SDS011;19043;51.012;5.648;2023-04-07T00:55:41;51.58;;;36.60;;
32633;SDS011;19043;51.012;5.648;2023-04-07T00:58:06;55.53;;;37.13;;
32633;SDS011;19043;51.012;5.648;2023-04-07T01:00:32;55.70;;;37.80;;
32633;SDS011;19043;51.012;5.648;2023-04-07T01:03:08;51.22;;;36.10;;
32633;SDS011;19043;51.012;5.648;2023-04-07T01:05:37;57.08;;;37.35;;
32633;SDS011;19043;51.012;5.648;2023-04-07T01:08:07;58.95;;;38.72;;
32633;SDS011;19043;51.012;5.648;2023-04-07T01:10:35;69.72;;;41.15;;
32633;SDS011;19043;51.012;5.648;2023-04-07T01:13:04;61.97;;;42.38;;
32633;SDS011;19043;51.012;5.648;2023-04-07T01:15:30;70.57;;;44.20;;
32633;SDS011;19043;51.012;5.648;2023-04-07T01:18:04;74.60;;;47.90;;
32633;SDS011;19043;51.012;5.648;2023-04-07T01:22:57;75.60;;;48.33;;
32633;SDS011;19043;51.012;5.648;2023-04-07T01:30:30;84.63;;;52.08;;
32633;SDS011;19043;51.012;5.648;2023-04-07T01:32:57;74.80;;;49.33;;
32633;SDS011;19043;51.012;5.648;2023-04-07T01:35:22;83.60;;;51.25;;
32633;SDS011;19043;51.012;5.648;2023-04-07T01:37:48;70.35;;;50.20;;
32633;SDS011;19043;51.012;5.648;2023-04-07T01:40:14;76.07;;;48.47;;
32633;SDS011;19043;51.012;5.648;2023-04-07T01:42:40;70.05;;;49.60;;
32633;SDS011;19043;51.012;5.648;2023-04-07T01:45:06;72.15;;;48.83;;
32633;SDS011;19043;51.012;5.648;2023-04-07T01:47:32;73.35;;;51.92;;
32633;SDS011;19043;51.012;5.648;2023-04-07T01:49:58;84.03;;;51.28;;
32633;SDS011;19043;51.012;5.648;2023-04-07T01:52:25;76.70;;;50.80;;
32633;SDS011;19043;51.012;5.648;2023-04-07T01:54:52;68.82;;;49.28;;
32633;SDS011;19043;51.012;5.648;2023-04-07T01:57:17;77.00;;;50.80;;
32633;SDS011;19043;51.012;5.648;2023-04-07T01:59:43;96.45;;;52.35;;
32633;SDS011;19043;51.012;5.648;2023-04-07T02:02:08;72.55;;;50.05;;
32633;SDS011;19043;51.012;5.648;2023-04-07T02:04:39;86.78;;;53.20;;
32633;SDS011;19043;51.012;5.648;2023-04-07T02:07:13;84.27;;;54.27;;
32633;SDS011;19043;51.012;5.648;2023-04-07T02:09:42;82.03;;;51.67;;
32633;SDS011;19043;51.012;5.648;2023-04-07T02:12:08;74.38;;;50.47;;
32633;SDS011;19043;51.012;5.648;2023-04-07T02:14:35;78.38;;;52.50;;
32633;SDS011;19043;51.012;5.648;2023-04-07T02:17:01;71.88;;;51.35;;
32633;SDS011;19043;51.012;5.648;2023-04-07T02:19:27;76.90;;;52.17;;
32633;SDS011;19043;51.012;5.648;2023-04-07T02:21:54;70.57;;;49.40;;
32633;SDS011;19043;51.012;5.648;2023-04-07T02:24:20;79.85;;;52.38;;
32633;SDS011;19043;51.012;5.648;2023-04-07T02:26:48;90.32;;;52.50;;
32633;SDS011;19043;51.012;5.648;2023-04-07T02:29:13;81.20;;;50.42;;
32633;SDS011;19043;51.012;5.648;2023-04-07T02:31:38;73.22;;;51.30;;
32633;SDS011;19043;51.012;5.648;2023-04-07T02:34:04;76.95;;;52.65;;
32633;SDS011;19043;51.012;5.648;2023-04-07T02:36:29;68.88;;;47.60;;
32633;SDS011;19043;51.012;5.648;2023-04-07T02:38:55;87.05;;;51.90;;
32633;SDS011;19043;51.012;5.648;2023-04-07T02:41:20;76.50;;;51.22;;
32633;SDS011;19043;51.012;5.648;2023-04-07T02:43:46;67.68;;;48.90;;
32633;SDS011;19043;51.012;5.648;2023-04-07T02:46:11;92.05;;;53.20;;
32633;SDS011;19043;51.012;5.648;2023-04-07T02:48:36;90.88;;;51.97;;
32633;SDS011;19043;51.012;5.648;2023-04-07T02:51:02;68.28;;;46.40;;
32633;SDS011;19043;51.012;5.648;2023-04-07T02:53:27;69.95;;;48.38;;
32633;SDS011;19043;51.012;5.648;2023-04-07T02:55:52;73.60;;;48.40;;
32633;SDS011;19043;51.012;5.648;2023-04-07T02:58:17;75.65;;;48.28;;
32633;SDS011;19043;51.012;5.648;2023-04-07T03:00:43;77.25;;;48.28;;
32633;SDS011;19043;51.012;5.648;2023-04-07T03:03:08;78.45;;;49.03;;
32633;SDS011;19043;51.012;5.648;2023-04-07T03:05:33;77.32;;;49.45;;
32633;SDS011;19043;51.012;5.648;2023-04-07T03:07:59;70.47;;;48.58;;
32633;SDS011;19043;51.012;5.648;2023-04-07T03:10:24;71.50;;;48.33;;
32633;SDS011;19043;51.012;5.648;2023-04-07T03:12:49;78.97;;;47.58;;
32633;SDS011;19043;51.012;5.648;2023-04-07T03:15:15;80.80;;;48.55;;
32633;SDS011;19043;51.012;5.648;2023-04-07T03:17:40;75.50;;;50.90;;
32633;SDS011;19043;51.012;5.648;2023-04-07T03:20:05;75.55;;;49.30;;
32633;SDS011;19043;51.012;5.648;2023-04-07T03:22:31;74.35;;;49.38;;
32633;SDS011;19043;51.012;5.648;2023-04-07T03:24:56;73.43;;;47.80;;
32633;SDS011;19043;51.012;5.648;2023-04-07T03:27:22;74.15;;;48.05;;
32633;SDS011;19043;51.012;5.648;2023-04-07T03:29:47;71.90;;;49.50;;
32633;SDS011;19043;51.012;5.648;2023-04-07T03:32:12;77.45;;;50.60;;
32633;SDS011;19043;51.012;5.648;2023-04-07T03:34:37;72.07;;;47.72;;
32633;SDS011;19043;51.012;5.648;2023-04-07T03:37:03;70.88;;;47.42;;
32633;SDS011;19043;51.012;5.648;2023-04-07T03:39:28;66.47;;;46.75;;
32633;SDS011;19043;51.012;5.648;2023-04-07T03:41:53;79.35;;;49.97;;
32633;SDS011;19043;51.012;5.648;2023-04-07T03:44:18;64.18;;;45.80;;
32633;SDS011;19043;51.012;5.648;2023-04-07T03:46:44;75.60;;;46.67;;
32633;SDS011;19043;51.012;5.648;2023-04-07T03:49:09;70.88;;;44.88;;
32633;SDS011;19043;51.012;5.648;2023-04-07T03:51:35;72.18;;;45.92;;
32633;SDS011;19043;51.012;5.648;2023-04-07T03:54:00;57.58;;;41.78;;
32633;SDS011;19043;51.012;5.648;2023-04-07T03:56:25;59.78;;;39.33;;
32633;SDS011;19043;51.012;5.648;2023-04-07T03:58:51;64.05;;;38.53;;
32633;SDS011;19043;51.012;5.648;2023-04-07T04:01:16;51.60;;;35.75;;
32633;SDS011;19043;51.012;5.648;2023-04-07T04:03:42;56.17;;;36.95;;
32633;SDS011;19043;51.012;5.648;2023-04-07T04:06:07;51.13;;;36.65;;
32633;SDS011;19043;51.012;5.648;2023-04-07T04:08:32;45.83;;;35.95;;
32633;SDS011;19043;51.012;5.648;2023-04-07T04:10:57;52.88;;;36.55;;
32633;SDS011;19043;51.012;5.648;2023-04-07T04:13:23;58.20;;;38.20;;
32633;SDS011;19043;51.012;5.648;2023-04-07T04:15:48;62.28;;;37.22;;
32633;SDS011;19043;51.012;5.648;2023-04-07T04:18:13;52.00;;;35.22;;
32633;SDS011;19043;51.012;5.648;2023-04-07T04:20:38;54.15;;;35.00;;
32633;SDS011;19043;51.012;5.648;2023-04-07T04:23:04;46.05;;;32.03;;
32633;SDS011;19043;51.012;5.648;2023-04-07T04:25:29;43.05;;;31.15;;
32633;SDS011;19043;51.012;5.648;2023-04-07T04:27:54;37.55;;;25.88;;
32633;SDS011;19043;51.012;5.648;2023-04-07T04:30:20;42.90;;;25.25;;
32633;SDS011;19043;51.012;5.648;2023-04-07T04:32:45;29.42;;;19.50;;
32633;SDS011;19043;51.012;5.648;2023-04-07T04:35:10;27.52;;;18.58;;
32633;SDS011;19043;51.012;5.648;2023-04-07T04:37:36;21.02;;;16.63;;
32633;SDS011;19043;51.012;5.648;2023-04-07T04:40:01;31.25;;;16.25;;
32633;SDS011;19043;51.012;5.648;2023-04-07T04:42:26;27.60;;;14.05;;
32633;SDS011;19043;51.012;5.648;2023-04-07T04:44:52;23.90;;;15.23;;
32633;SDS011;19043;51.012;5.648;2023-04-07T04:47:17;20.90;;;15.05;;
32633;SDS011;19043;51.012;5.648;2023-04-07T04:49:43;37.65;;;16.08;;
32633;SDS011;19043;51.012;5.648;2023-04-07T04:52:08;29.10;;;16.23;;
32633;SDS011;19043;51.012;5.648;2023-04-07T04:54:33;25.10;;;16.48;;
32633;SDS011;19043;51.012;5.648;2023-04-07T04:56:59;23.83;;;16.00;;
32633;SDS011;19043;51.012;5.648;2023-04-07T04:59:25;26.27;;;17.83;;
32633;SDS011;19043;51.012;5.648;2023-04-07T05:01:51;24.98;;;17.45;;
32633;SDS011;19043;51.012;5.648;2023-04-07T05:04:16;29.80;;;18.08;;
32633;SDS011;19043;51.012;5.648;2023-04-07T05:06:41;29.45;;;19.52;;
32633;SDS011;19043;51.012;5.648;2023-04-07T05:09:07;32.55;;;21.10;;
32633;SDS011;19043;51.012;5.648;2023-04-07T05:11:32;40.67;;;22.70;;
32633;SDS011;19043;51.012;5.648;2023-04-07T05:13:57;36.95;;;24.05;;
32633;SDS011;19043;51.012;5.648;2023-04-07T05:16:22;45.53;;;24.27;;
32633;SDS011;19043;51.012;5.648;2023-04-07T05:18:48;30.02;;;24.30;;
32633;SDS011;19043;51.012;5.648;2023-04-07T05:21:13;40.70;;;26.73;;
32633;SDS011;19043;51.012;5.648;2023-04-07T05:23:38;42.42;;;27.13;;
32633;SDS011;19043;51.012;5.648;2023-04-07T05:26:03;39.35;;;27.75;;
32633;SDS011;19043;51.012;5.648;2023-04-07T05:28:29;39.47;;;27.85;;
32633;SDS011;19043;51.012;5.648;2023-04-07T05:30:54;47.00;;;26.13;;
32633;SDS011;19043;51.012;5.648;2023-04-07T05:33:20;45.25;;;29.15;;
32633;SDS011;19043;51.012;5.648;2023-04-07T05:35:45;42.80;;;28.70;;
32633;SDS011;19043;51.012;5.648;2023-04-07T05:38:11;47.95;;;31.48;;
32633;SDS011;19043;51.012;5.648;2023-04-07T05:40:36;50.88;;;29.65;;
32633;SDS011;19043;51.012;5.648;2023-04-07T05:43:01;43.08;;;30.63;;
32633;SDS011;19043;51.012;5.648;2023-04-07T05:45:27;49.58;;;30.52;;
32633;SDS011;19043;51.012;5.648;2023-04-07T05:47:52;45.42;;;30.65;;
32633;SDS011;19043;51.012;5.648;2023-04-07T05:50:17;48.85;;;31.40;;
32633;SDS011;19043;51.012;5.648;2023-04-07T05:52:42;42.47;;;29.30;;
32633;SDS011;19043;51.012;5.648;2023-04-07T05:55:08;52.60;;;29.70;;
32633;SDS011;19043;51.012;5.648;2023-04-07T05:57:33;36.20;;;27.70;;
32633;SDS011;19043;51.012;5.648;2023-04-07T05:59:58;42.45;;;30.27;;
32633;SDS011;19043;51.012;5.648;2023-04-07T06:02:24;37.78;;;28.02;;
32633;SDS011;19043;51.012;5.648;2023-04-07T06:04:49;43.92;;;30.42;;
32633;SDS011;19043;51.012;5.648;2023-04-07T06:07:15;50.78;;;31.02;;
32633;SDS011;19043;51.012;5.648;2023-04-07T06:09:40;51.55;;;34.40;;
32633;SDS011;19043;51.012;5.648;2023-04-07T06:12:06;47.28;;;33.60;;
32633;SDS011;19043;51.012;5.648;2023-04-07T06:14:32;55.40;;;35.22;;
32633;SDS011;19043;51.012;5.648;2023-04-07T06:16:57;50.60;;;33.00;;
32633;SDS011;19043;51.012;5.648;2023-04-07T06:19:22;49.40;;;35.25;;
32633;SDS011;19043;51.012;5.648;2023-04-07T06:21:47;50.83;;;33.55;;
32633;SDS011;19043;51.012;5.648;2023-04-07T06:24:12;42.63;;;33.38;;
32633;SDS011;19043;51.012;5.648;2023-04-07T06:26:38;55.03;;;36.20;;
32633;SDS011;19043;51.012;5.648;2023-04-07T06:29:03;58.90;;;35.88;;
32633;SDS011;19043;51.012;5.648;2023-04-07T06:31:29;58.40;;;36.50;;
32633;SDS011;19043;51.012;5.648;2023-04-07T06:33:54;58.28;;;37.45;;
32633;SDS011;19043;51.012;5.648;2023-04-07T06:36:19;50.65;;;36.05;;
32633;SDS011;19043;51.012;5.648;2023-04-07T06:38:45;59.03;;;36.95;;
32633;SDS011;19043;51.012;5.648;2023-04-07T06:41:11;61.58;;;36.33;;
32633;SDS011;19043;51.012;5.648;2023-04-07T06:43:41;67.70;;;37.10;;
32633;SDS011;19043;51.012;5.648;2023-04-07T06:46:06;58.08;;;35.58;;
32633;SDS011;19043;51.012;5.648;2023-04-07T06:48:31;58.22;;;34.60;;
32633;SDS011;19043;51.012;5.648;2023-04-07T06:50:56;51.80;;;35.78;;
32633;SDS011;19043;51.012;5.648;2023-04-07T06:53:21;55.70;;;36.33;;
32633;SDS011;19043;51.012;5.648;2023-04-07T06:55:47;62.20;;;34.40;;
32633;SDS011;19043;51.012;5.648;2023-04-07T06:58:12;53.45;;;36.17;;
32633;SDS011;19043;51.012;5.648;2023-04-07T07:00:37;52.17;;;34.72;;
32633;SDS011;19043;51.012;5.648;2023-04-07T07:03:02;49.88;;;36.42;;
32633;SDS011;19043;51.012;5.648;2023-04-07T07:05:28;48.70;;;33.53;;
32633;SDS011;19043;51.012;5.648;2023-04-07T07:07:53;49.40;;;36.10;;
32633;SDS011;19043;51.012;5.648;2023-04-07T07:10:18;61.78;;;34.70;;
32633;SDS011;19043;51.012;5.648;2023-04-07T07:12:47;54.95;;;36.13;;
32633;SDS011;19043;51.012;5.648;2023-04-07T07:15:12;57.95;;;35.92;;
32633;SDS011;19043;51.012;5.648;2023-04-07T07:17:38;55.55;;;37.38;;
32633;SDS011;19043;51.012;5.648;2023-04-07T07:20:03;66.32;;;35.92;;
32633;SDS011;19043;51.012;5.648;2023-04-07T07:22:28;52.63;;;37.03;;
32633;SDS011;19043;51.012;5.648;2023-04-07T07:24:54;58.40;;;35.05;;
32633;SDS011;19043;51.012;5.648;2023-04-07T07:27:19;57.00;;;36.97;;
32633;SDS011;19043;51.012;5.648;2023-04-07T07:29:44;59.17;;;37.80;;
32633;SDS011;19043;51.012;5.648;2023-04-07T07:32:09;57.70;;;39.03;;
32633;SDS011;19043;51.012;5.648;2023-04-07T07:34:35;57.58;;;37.55;;
32633;SDS011;19043;51.012;5.648;2023-04-07T07:37:00;54.08;;;36.10;;
32633;SDS011;19043;51.012;5.648;2023-04-07T07:39:25;67.93;;;36.10;;
32633;SDS011;19043;51.012;5.648;2023-04-07T07:41:51;55.30;;;35.97;;
32633;SDS011;19043;51.012;5.648;2023-04-07T07:44:16;60.03;;;35.33;;
32633;SDS011;19043;51.012;5.648;2023-04-07T07:46:44;63.58;;;35.25;;
32633;SDS011;19043;51.012;5.648;2023-04-07T07:49:09;57.92;;;36.20;;
32633;SDS011;19043;51.012;5.648;2023-04-07T07:51:34;54.58;;;33.10;;
32633;SDS011;19043;51.012;5.648;2023-04-07T07:54:00;51.67;;;31.88;;
32633;SDS011;19043;51.012;5.648;2023-04-07T07:56:25;56.40;;;32.42;;
32633;SDS011;19043;51.012;5.648;2023-04-07T07:58:51;47.97;;;33.28;;
32633;SDS011;19043;51.012;5.648;2023-04-07T08:01:16;42.28;;;31.70;;
32633;SDS011;19043;51.012;5.648;2023-04-07T08:03:42;46.58;;;32.80;;
32633;SDS011;19043;51.012;5.648;2023-04-07T08:06:07;51.78;;;31.88;;
32633;SDS011;19043;51.012;5.648;2023-04-07T08:08:33;47.55;;;31.55;;
32633;SDS011;19043;51.012;5.648;2023-04-07T08:10:58;45.47;;;29.40;;
32633;SDS011;19043;51.012;5.648;2023-04-07T08:13:24;46.25;;;28.58;;
32633;SDS011;19043;51.012;5.648;2023-04-07T08:15:49;44.47;;;28.90;;
32633;SDS011;19043;51.012;5.648;2023-04-07T08:18:14;49.30;;;30.15;;
32633;SDS011;19043;51.012;5.648;2023-04-07T08:20:40;47.75;;;26.90;;
32633;SDS011;19043;51.012;5.648;2023-04-07T08:23:05;36.45;;;24.92;;
32633;SDS011;19043;51.012;5.648;2023-04-07T08:25:30;45.90;;;26.20;;
32633;SDS011;19043;51.012;5.648;2023-04-07T08:27:56;38.97;;;24.92;;
32633;SDS011;19043;51.012;5.648;2023-04-07T08:30:21;34.08;;;23.45;;
32633;SDS011;19043;51.012;5.648;2023-04-07T08:32:46;38.05;;;24.42;;
32633;SDS011;19043;51.012;5.648;2023-04-07T08:35:12;30.17;;;22.48;;
32633;SDS011;19043;51.012;5.648;2023-04-07T08:37:37;41.55;;;23.92;;
32633;SDS011;19043;51.012;5.648;2023-04-07T08:40:03;33.72;;;21.98;;
32633;SDS011;19043;51.012;5.648;2023-04-07T08:42:29;34.63;;;22.83;;
32633;SDS011;19043;51.012;5.648;2023-04-07T08:45:01;31.45;;;21.05;;
32633;SDS011;19043;51.012;5.648;2023-04-07T08:47:27;26.25;;;20.55;;
32633;SDS011;19043;51.012;5.648;2023-04-07T08:49:53;30.05;;;19.40;;
32633;SDS011;19043;51.012;5.648;2023-04-07T08:52:21;23.38;;;19.15;;
32633;SDS011;19043;51.012;5.648;2023-04-07T08:54:47;29.85;;;18.67;;
32633;SDS011;19043;51.012;5.648;2023-04-07T08:57:13;27.10;;;19.30;;
32633;SDS011;19043;51.012;5.648;2023-04-07T08:59:38;28.83;;;18.38;;
32633;SDS011;19043;51.012;5.648;2023-04-07T09:02:07;21.60;;;15.27;;
32633;SDS011;19043;51.012;5.648;2023-04-07T09:04:32;17.25;;;13.55;;
32633;SDS011;19043;51.012;5.648;2023-04-07T09:06:59;20.25;;;12.70;;
32633;SDS011;19043;51.012;5.648;2023-04-07T09:09:26;16.30;;;13.13;;
32633;SDS011;19043;51.012;5.648;2023-04-07T09:11:51;23.77;;;13.45;;
32633;SDS011;19043;51.012;5.648;2023-04-07T09:14:16;18.77;;;13.02;;
32633;SDS011;19043;51.012;5.648;2023-04-07T09:16:42;17.77;;;11.32;;
32633;SDS011;19043;51.012;5.648;2023-04-07T09:19:08;17.38;;;11.40;;
32633;SDS011;19043;51.012;5.648;2023-04-07T09:21:46;24.20;;;13.73;;
32633;SDS011;19043;51.012;5.648;2023-04-07T09:24:21;14.15;;;11.30;;
32633;SDS011;19043;51.012;5.648;2023-04-07T09:26:46;15.68;;;10.70;;
32633;SDS011;19043;51.012;5.648;2023-04-07T09:29:14;15.80;;;10.50;;
32633;SDS011;19043;51.012;5.648;2023-04-07T09:31:46;13.32;;;8.68;;
32633;SDS011;19043;51.012;5.648;2023-04-07T09:34:23;10.48;;;7.68;;
32633;SDS011;19043;51.012;5.648;2023-04-07T09:36:49;13.20;;;9.05;;
32633;SDS011;19043;51.012;5.648;2023-04-07T09:39:15;10.88;;;8.20;;
32633;SDS011;19043;51.012;5.648;2023-04-07T09:41:40;12.48;;;9.52;;
32633;SDS011;19043;51.012;5.648;2023-04-07T09:44:05;13.48;;;8.30;;
32633;SDS011;19043;51.012;5.648;2023-04-07T09:46:31;12.10;;;8.05;;
32633;SDS011;19043;51.012;5.648;2023-04-07T09:49:00;10.57;;;8.45;;
32633;SDS011;19043;51.012;5.648;2023-04-07T09:51:26;12.00;;;8.07;;
32633;SDS011;19043;51.012;5.648;2023-04-07T09:53:52;15.35;;;9.00;;
32633;SDS011;19043;51.012;5.648;2023-04-07T09:56:19;19.20;;;10.43;;
32633;SDS011;19043;51.012;5.648;2023-04-07T09:58:46;15.25;;;9.63;;
32633;SDS011;19043;51.012;5.648;2023-04-07T10:01:12;22.17;;;11.48;;
32633;SDS011;19043;51.012;5.648;2023-04-07T10:03:38;17.55;;;11.48;;
32633;SDS011;19043;51.012;5.648;2023-04-07T10:06:04;15.48;;;10.48;;
32633;SDS011;19043;51.012;5.648;2023-04-07T10:08:32;12.50;;;10.60;;
32633;SDS011;19043;51.012;5.648;2023-04-07T10:10:58;17.20;;;11.20;;
32633;SDS011;19043;51.012;5.648;2023-04-07T10:13:26;13.55;;;11.20;;
32633;SDS011;19043;51.012;5.648;2023-04-07T10:15:52;19.17;;;11.57;;
32633;SDS011;19043;51.012;5.648;2023-04-07T10:18:18;12.13;;;9.93;;
32633;SDS011;19043;51.012;5.648;2023-04-07T10:20:44;17.38;;;10.90;;
32633;SDS011;19043;51.012;5.648;2023-04-07T10:23:15;18.70;;;10.48;;
32633;SDS011;19043;51.012;5.648;2023-04-07T10:25:41;20.63;;;10.32;;
32633;SDS011;19043;51.012;5.648;2023-04-07T10:28:09;13.52;;;10.00;;
32633;SDS011;19043;51.012;5.648;2023-04-07T10:30:36;13.75;;;10.00;;
32633;SDS011;19043;51.012;5.648;2023-04-07T10:33:03;14.40;;;9.90;;
32633;SDS011;19043;51.012;5.648;2023-04-07T10:35:28;12.77;;;8.43;;
32633;SDS011;19043;51.012;5.648;2023-04-07T10:38:13;12.55;;;8.60;;
32633;SDS011;19043;51.012;5.648;2023-04-07T10:40:40;13.05;;;8.82;;
32633;SDS011;19043;51.012;5.648;2023-04-07T10:43:06;10.32;;;8.65;;
32633;SDS011;19043;51.012;5.648;2023-04-07T10:48:10;12.77;;;9.38;;
32633;SDS011;19043;51.012;5.648;2023-04-07T10:50:36;22.88;;;9.10;;
32633;SDS011;19043;51.012;5.648;2023-04-07T10:53:05;13.43;;;8.32;;
32633;SDS011;19043;51.012;5.648;2023-04-07T11:00:38;14.85;;;8.45;;
32633;SDS011;19043;51.012;5.648;2023-04-07T11:03:10;12.10;;;8.48;;
32633;SDS011;19043;51.012;5.648;2023-04-07T11:05:38;11.32;;;8.15;;
32633;SDS011;19043;51.012;5.648;2023-04-07T11:08:04;9.75;;;7.07;;
32633;SDS011;19043;51.012;5.648;2023-04-07T11:10:31;12.70;;;8.95;;
32633;SDS011;19043;51.012;5.648;2023-04-07T11:13:01;14.82;;;8.85;;
32633;SDS011;19043;51.012;5.648;2023-04-07T11:15:27;14.20;;;10.23;;
32633;SDS011;19043;51.012;5.648;2023-04-07T11:20:42;15.52;;;11.55;;
32633;SDS011;19043;51.012;5.648;2023-04-07T11:23:08;14.05;;;10.50;;
32633;SDS011;19043;51.012;5.648;2023-04-07T11:25:33;19.83;;;11.63;;
32633;SDS011;19043;51.012;5.648;2023-04-07T11:27:59;18.52;;;11.77;;
32633;SDS011;19043;51.012;5.648;2023-04-07T11:30:25;20.00;;;12.57;;
32633;SDS011;19043;51.012;5.648;2023-04-07T11:32:50;13.43;;;11.10;;
32633;SDS011;19043;51.012;5.648;2023-04-07T11:35:15;13.20;;;11.43;;
32633;SDS011;19043;51.012;5.648;2023-04-07T11:37:41;13.23;;;10.13;;
32633;SDS011;19043;51.012;5.648;2023-04-07T11:40:06;15.43;;;10.85;;
32633;SDS011;19043;51.012;5.648;2023-04-07T11:42:35;15.90;;;10.45;;
32633;SDS011;19043;51.012;5.648;2023-04-07T11:45:01;15.45;;;9.95;;
32633;SDS011;19043;51.012;5.648;2023-04-07T11:47:37;15.32;;;10.45;;
32633;SDS011;19043;51.012;5.648;2023-04-07T11:50:03;16.42;;;10.10;;
32633;SDS011;19043;51.012;5.648;2023-04-07T11:52:28;14.65;;;10.38;;
32633;SDS011;19043;51.012;5.648;2023-04-07T11:55:04;16.05;;;8.80;;
32633;SDS011;19043;51.012;5.648;2023-04-07T11:57:29;12.40;;;9.15;;
32633;SDS011;19043;51.012;5.648;2023-04-07T12:00:04;12.15;;;8.23;;
32633;SDS011;19043;51.012;5.648;2023-04-07T12:02:30;10.75;;;6.93;;
32633;SDS011;19043;51.012;5.648;2023-04-07T12:04:56;11.40;;;7.90;;
32633;SDS011;19043;51.012;5.648;2023-04-07T12:07:21;9.65;;;6.88;;
32633;SDS011;19043;51.012;5.648;2023-04-07T12:09:47;17.05;;;8.18;;
32633;SDS011;19043;51.012;5.648;2023-04-07T12:12:12;10.27;;;6.85;;
32633;SDS011;19043;51.012;5.648;2023-04-07T12:14:38;8.60;;;5.60;;
32633;SDS011;19043;51.012;5.648;2023-04-07T12:17:03;8.43;;;5.93;;
32633;SDS011;19043;51.012;5.648;2023-04-07T12:19:29;8.68;;;5.70;;
32633;SDS011;19043;51.012;5.648;2023-04-07T12:21:55;8.55;;;5.03;;
32633;SDS011;19043;51.012;5.648;2023-04-07T12:24:20;17.10;;;5.05;;
32633;SDS011;19043;51.012;5.648;2023-04-07T12:26:46;10.48;;;5.18;;
32633;SDS011;19043;51.012;5.648;2023-04-07T12:29:12;9.70;;;4.70;;
32633;SDS011;19043;51.012;5.648;2023-04-07T12:31:37;7.50;;;4.88;;
32633;SDS011;19043;51.012;5.648;2023-04-07T12:34:02;7.07;;;4.82;;
32633;SDS011;19043;51.012;5.648;2023-04-07T12:36:28;10.57;;;5.03;;
32633;SDS011;19043;51.012;5.648;2023-04-07T12:38:54;8.45;;;4.82;;
32633;SDS011;19043;51.012;5.648;2023-04-07T12:41:19;10.40;;;5.50;;
32633;SDS011;19043;51.012;5.648;2023-04-07T12:43:45;9.25;;;5.50;;
32633;SDS011;19043;51.012;5.648;2023-04-07T12:46:10;12.90;;;6.15;;
32633;SDS011;19043;51.012;5.648;2023-04-07T12:48:36;9.95;;;5.35;;
32633;SDS011;19043;51.012;5.648;2023-04-07T12:51:01;10.55;;;5.82;;
32633;SDS011;19043;51.012;5.648;2023-04-07T12:53:26;8.25;;;5.28;;
32633;SDS011;19043;51.012;5.648;2023-04-07T12:55:52;9.90;;;4.85;;
32633;SDS011;19043;51.012;5.648;2023-04-07T12:58:18;13.43;;;6.40;;
32633;SDS011;19043;51.012;5.648;2023-04-07T13:00:43;13.45;;;6.05;;
32633;SDS011;19043;51.012;5.648;2023-04-07T13:03:09;11.15;;;7.40;;
32633;SDS011;19043;51.012;5.648;2023-04-07T13:05:34;13.88;;;6.85;;
32633;SDS011;19043;51.012;5.648;2023-04-07T13:07:59;10.30;;;5.93;;
32633;SDS011;19043;51.012;5.648;2023-04-07T13:10:25;14.63;;;7.03;;
32633;SDS011;19043;51.012;5.648;2023-04-07T13:12:50;11.38;;;6.63;;
32633;SDS011;19043;51.012;5.648;2023-04-07T13:15:15;19.50;;;7.03;;
32633;SDS011;19043;51.012;5.648;2023-04-07T13:17:40;10.82;;;6.65;;
32633;SDS011;19043;51.012;5.648;2023-04-07T13:20:06;11.40;;;6.85;;
32633;SDS011;19043;51.012;5.648;2023-04-07T13:22:32;12.70;;;5.85;;
32633;SDS011;19043;51.012;5.648;2023-04-07T13:24:58;10.80;;;6.32;;
32633;SDS011;19043;51.012;5.648;2023-04-07T13:27:23;9.40;;;5.82;;
32633;SDS011;19043;51.012;5.648;2023-04-07T13:29:48;11.63;;;6.35;;
32633;SDS011;19043;51.012;5.648;2023-04-07T13:32:14;11.82;;;6.35;;
32633;SDS011;19043;51.012;5.648;2023-04-07T13:34:39;14.18;;;6.63;;
32633;SDS011;19043;51.012;5.648;2023-04-07T13:37:05;13.85;;;6.30;;
32633;SDS011;19043;51.012;5.648;2023-04-07T13:39:31;10.27;;;6.50;;
32633;SDS011;19043;51.012;5.648;2023-04-07T13:41:56;11.00;;;6.13;;
32633;SDS011;19043;51.012;5.648;2023-04-07T13:44:22;8.10;;;5.45;;
32633;SDS011;19043;51.012;5.648;2023-04-07T13:46:47;8.45;;;5.70;;
32633;SDS011;19043;51.012;5.648;2023-04-07T13:49:13;12.13;;;5.72;;
32633;SDS011;19043;51.012;5.648;2023-04-07T13:51:39;11.18;;;6.53;;
32633;SDS011;19043;51.012;5.648;2023-04-07T13:54:04;9.07;;;5.82;;
32633;SDS011;19043;51.012;5.648;2023-04-07T13:56:30;18.77;;;6.00;;
32633;SDS011;19043;51.012;5.648;2023-04-07T13:58:55;11.93;;;6.20;;
32633;SDS011;19043;51.012;5.648;2023-04-07T14:01:21;6.88;;;5.15;;
32633;SDS011;19043;51.012;5.648;2023-04-07T14:03:46;8.93;;;5.80;;
32633;SDS011;19043;51.012;5.648;2023-04-07T14:06:11;8.20;;;5.13;;
32633;SDS011;19043;51.012;5.648;2023-04-07T14:08:37;9.93;;;5.57;;
32633;SDS011;19043;51.012;5.648;2023-04-07T14:11:02;9.85;;;4.80;;
32633;SDS011;19043;51.012;5.648;2023-04-07T14:13:27;9.10;;;5.28;;
32633;SDS011;19043;51.012;5.648;2023-04-07T14:15:52;7.70;;;4.78;;
32633;SDS011;19043;51.012;5.648;2023-04-07T14:18:18;11.73;;;4.55;;
32633;SDS011;19043;51.012;5.648;2023-04-07T14:20:43;8.95;;;4.53;;
32633;SDS011;19043;51.012;5.648;2023-04-07T14:23:08;7.30;;;4.38;;
32633;SDS011;19043;51.012;5.648;2023-04-07T14:25:33;9.88;;;4.40;;
32633;SDS011;19043;51.012;5.648;2023-04-07T14:27:59;7.63;;;4.80;;
32633;SDS011;19043;51.012;5.648;2023-04-07T14:30:24;8.15;;;4.35;;
32633;SDS011;19043;51.012;5.648;2023-04-07T14:32:49;12.23;;;4.63;;
32633;SDS011;19043;51.012;5.648;2023-04-07T14:35:14;8.07;;;4.68;;
32633;SDS011;19043;51.012;5.648;2023-04-07T14:37:40;10.57;;;4.15;;